createdAt,value
2023-02-13T00:00:52.623Z,44.78
2023-02-13T00:06:00.079Z,51.90
2023-02-13T00:11:07.241Z,55.08
2023-02-13T00:16:13.160Z,57.75
2023-02-13T00:21:19.394Z,50.35
2023-02-13T00:31:30.655Z,68.90
2023-02-13T00:36:38.167Z,59.53
2023-02-13T00:41:44.938Z,62.42
2023-02-13T00:46:51.201Z,64.35
2023-02-13T01:06:28.788Z,54.72
2023-02-13T01:11:35.190Z,65.10
2023-02-13T01:17:13.400Z,67.97
2023-02-13T01:22:38.386Z,70.50
2023-02-13T01:27:44.741Z,84.75
2023-02-13T01:32:51.074Z,77.03
2023-02-13T01:38:00.409Z,74.97
2023-02-13T01:43:06.380Z,74.35
2023-02-13T01:48:30.339Z,66.15
2023-02-13T01:58:49.232Z,75.68
2023-02-13T02:04:12.758Z,74.80
2023-02-13T02:09:25.216Z,71.03
2023-02-13T02:14:31.655Z,82.65
2023-02-13T02:20:14.969Z,71.75
2023-02-13T02:25:57.367Z,95.55
2023-02-13T02:31:21.534Z,85.60
2023-02-13T02:37:25.557Z,77.32
2023-02-13T02:49:36.760Z,65.10
2023-02-13T02:55:12.603Z,65.22
2023-02-13T03:01:09.367Z,76.13
2023-02-13T03:06:27.215Z,72.53
2023-02-13T03:11:51.446Z,79.13
2023-02-13T03:17:21.325Z,64.80
2023-02-13T03:24:01.589Z,56.15
2023-02-13T03:29:43.107Z,81.07
2023-02-13T03:35:19.821Z,84.10
2023-02-13T03:41:22.285Z,69.78
2023-02-13T03:46:32.683Z,86.22
2023-02-13T03:51:50.995Z,63.22
2023-02-13T03:57:17.523Z,80.13
2023-02-13T04:02:27.945Z,77.95
2023-02-13T04:07:34.664Z,82.70
2023-02-13T04:12:53.440Z,74.63
2023-02-13T04:18:20.856Z,74.38
2023-02-13T04:35:12.911Z,70.20
2023-02-13T04:40:22.581Z,60.70
2023-02-13T04:45:55.519Z,80.57
2023-02-13T04:56:47.210Z,76.47
2023-02-13T05:01:53.158Z,77.50
2023-02-13T05:06:58.725Z,79.90
2023-02-13T05:12:04.322Z,79.55
2023-02-13T05:17:10.676Z,77.90
2023-02-13T05:22:34.251Z,77.78
2023-02-13T05:27:40.004Z,83.38
2023-02-13T05:32:45.762Z,82.13
2023-02-13T05:37:51.250Z,66.63
2023-02-13T05:43:16.703Z,68.38
2023-02-13T05:48:43.514Z,81.85
2023-02-13T05:53:49.032Z,78.55
2023-02-13T05:58:58.342Z,62.85
2023-02-13T06:04:04.154Z,73.65
2023-02-13T06:14:16.131Z,76.88
2023-02-13T06:19:21.794Z,85.65
2023-02-13T06:24:28.389Z,87.75
2023-02-13T06:29:34.568Z,77.60
2023-02-13T06:34:39.834Z,81.53
2023-02-13T06:39:45.472Z,78.10
2023-02-13T06:44:51.490Z,72.25
2023-02-13T06:49:56.965Z,68.47
2023-02-13T06:55:02.805Z,68.63
2023-02-13T07:00:13.039Z,84.38
2023-02-13T07:05:18.744Z,85.45
2023-02-13T07:10:25.188Z,80.22
2023-02-13T07:15:30.802Z,78.22
2023-02-13T07:20:40.397Z,79.20
2023-02-13T07:30:50.776Z,70.60
2023-02-13T07:41:05.758Z,66.95
2023-02-13T07:46:15.146Z,75.53
2023-02-13T07:51:20.758Z,69.28
2023-02-13T07:56:26.376Z,63.90
2023-02-13T08:06:37.131Z,67.30
2023-02-13T08:17:03.720Z,69.63
2023-02-13T08:22:38.883Z,69.60
2023-02-13T08:27:44.466Z,71.13
2023-02-13T08:38:04.177Z,62.22
2023-02-13T08:43:10.148Z,68.10
2023-02-13T08:54:32.967Z,66.60
2023-02-13T08:59:38.473Z,78.75
2023-02-13T09:04:52.940Z,68.40
2023-02-13T09:09:58.311Z,62.45
2023-02-13T09:15:03.995Z,69.82
2023-02-13T09:25:33.376Z,49.57
2023-02-13T09:31:43.022Z,64.40
2023-02-13T09:36:53.024Z,60.20
2023-02-13T09:41:59.978Z,48.75
2023-02-13T09:47:08.474Z,77.10
2023-02-13T09:52:14.378Z,63.58
2023-02-13T09:57:30.922Z,54.75
2023-02-13T10:03:00.787Z,64.90
2023-02-13T10:21:59.408Z,74.40
2023-02-13T10:27:35.589Z,65.90
2023-02-13T10:33:25.565Z,69.32
2023-02-13T10:38:34.597Z,72.63
2023-02-13T10:44:05.265Z,71.47
2023-02-13T10:49:22.504Z,71.13
2023-02-13T10:54:51.659Z,57.75
2023-02-13T11:00:26.799Z,67.95
2023-02-13T11:05:43.723Z,63.80
2023-02-13T11:10:49.782Z,64.30
2023-02-13T11:16:12.039Z,66.32
2023-02-13T11:21:36.642Z,49.92
2023-02-13T11:26:43.061Z,60.33
2023-02-13T11:31:49.120Z,55.40
2023-02-13T11:36:56.740Z,47.42
2023-02-13T11:42:03.165Z,47.78
2023-02-13T11:47:09.014Z,53.78
2023-02-13T11:58:08.075Z,55.00
2023-02-13T12:03:32.397Z,56.97
2023-02-13T12:08:41.916Z,52.53
2023-02-13T12:13:48.771Z,54.00
2023-02-13T12:18:58.850Z,53.20
2023-02-13T12:24:26.556Z,57.38
2023-02-13T12:30:02.121Z,52.78
2023-02-13T12:35:29.267Z,54.33
2023-02-13T12:41:00.775Z,49.15
2023-02-13T12:46:39.771Z,52.03
2023-02-13T12:51:58.346Z,50.03
2023-02-13T12:57:07.401Z,49.55
2023-02-13T13:02:35.961Z,51.67
2023-02-13T13:07:59.027Z,44.50
2023-02-13T13:13:29.200Z,51.35
2023-02-13T13:18:49.778Z,35.35
2023-02-13T13:36:49.575Z,40.35
2023-02-13T13:49:52.123Z,46.00
2023-02-13T13:55:01.800Z,51.38
2023-02-13T14:00:12.704Z,49.08
2023-02-13T14:05:24.451Z,53.97
2023-02-13T14:10:33.996Z,49.78
2023-02-13T14:15:45.913Z,40.05
2023-02-13T14:20:54.290Z,51.55
2023-02-13T14:26:18.732Z,52.33
2023-02-13T14:31:46.105Z,47.53
2023-02-13T14:37:14.469Z,54.13
2023-02-13T14:42:31.733Z,53.75
2023-02-13T14:47:58.267Z,48.42
2023-02-13T14:53:11.503Z,48.45
2023-02-13T14:58:39.822Z,57.30
2023-02-13T15:04:14.337Z,45.42
2023-02-13T15:09:41.424Z,29.30
2023-02-13T15:14:47.256Z,46.38
2023-02-13T15:19:58.736Z,45.50
2023-02-13T15:25:05.118Z,50.33
2023-02-13T15:30:25.230Z,58.15
2023-02-13T15:35:39.046Z,55.75
2023-02-13T15:40:45.825Z,50.92
2023-02-13T15:45:51.653Z,55.97
2023-02-13T15:56:06.808Z,51.83
2023-02-13T16:01:42.179Z,65.35
2023-02-13T16:12:34.170Z,46.85
2023-02-13T16:17:44.708Z,45.97
2023-02-13T16:23:03.885Z,47.55
2023-02-13T16:28:24.259Z,44.05
2023-02-13T16:33:44.858Z,45.72
2023-02-13T16:38:51.703Z,47.30
2023-02-13T16:44:07.888Z,48.10
2023-02-13T16:49:13.366Z,45.95
2023-02-13T16:54:19.291Z,51.13
2023-02-13T17:06:39.392Z,48.97
2023-02-13T17:11:51.372Z,49.70
2023-02-13T17:16:57.143Z,48.97
2023-02-13T17:22:02.625Z,49.97
2023-02-13T17:27:07.848Z,55.45
2023-02-13T17:32:19.287Z,51.20
2023-02-13T17:37:31.621Z,59.65
2023-02-13T17:42:41.297Z,58.42
2023-02-13T17:47:46.707Z,54.92
2023-02-13T17:52:52.211Z,50.20
2023-02-13T17:57:59.780Z,52.42
2023-02-13T18:03:05.678Z,45.00
2023-02-13T18:08:11.312Z,53.92
2023-02-13T18:13:16.818Z,50.37
2023-02-13T18:18:21.960Z,54.20
2023-02-13T18:23:27.453Z,48.70
2023-02-13T18:28:33.705Z,52.47
2023-02-13T18:33:39.750Z,45.15
2023-02-13T18:43:50.200Z,49.63
2023-02-13T18:48:55.435Z,51.70
2023-02-13T18:54:01.368Z,53.47
2023-02-13T19:04:13.299Z,93.78
2023-02-13T19:09:18.982Z,84.88
2023-02-13T19:14:25.924Z,100.88
2023-02-13T19:19:33.130Z,67.68
2023-02-13T19:24:38.553Z,75.43
2023-02-13T19:29:43.712Z,64.83
2023-02-13T19:34:58.099Z,63.93
2023-02-13T19:40:04.037Z,63.72
2023-02-13T19:45:09.638Z,68.35
2023-02-13T19:50:14.991Z,50.38
2023-02-13T19:55:21.538Z,44.83
2023-02-13T20:00:27.550Z,55.97
2023-02-13T20:05:40.141Z,69.22
2023-02-13T20:10:48.644Z,62.83
2023-02-13T20:15:54.698Z,54.20
2023-02-13T20:20:59.998Z,47.08
2023-02-13T20:26:15.216Z,55.42
2023-02-13T20:31:23.265Z,51.00
2023-02-13T20:36:31.811Z,33.92
2023-02-13T20:41:38.512Z,41.00
2023-02-13T20:46:43.949Z,29.90
2023-02-13T20:52:10.980Z,29.37
2023-02-13T20:57:17.309Z,27.23
2023-02-13T21:02:22.352Z,32.13
2023-02-13T21:07:28.604Z,31.13
2023-02-13T21:12:35.221Z,35.85
2023-02-13T21:17:40.339Z,25.95
2023-02-13T21:22:46.160Z,28.47
2023-02-13T21:27:51.524Z,34.92
2023-02-13T21:32:56.807Z,24.07
2023-02-13T21:38:02.042Z,26.83
2023-02-13T21:43:08.188Z,26.40
2023-02-13T21:48:13.775Z,23.83
2023-02-13T21:53:19.224Z,25.77
2023-02-13T21:58:24.981Z,29.03
2023-02-13T22:03:30.545Z,26.75
2023-02-13T22:08:36.358Z,31.95
2023-02-13T22:13:41.732Z,28.58
2023-02-13T22:18:47.568Z,21.25
2023-02-13T22:29:02.276Z,21.95
2023-02-13T22:34:08.347Z,23.30
2023-02-13T22:44:20.629Z,26.67
2023-02-13T22:49:26.300Z,27.25
2023-02-13T22:54:32.096Z,24.83
2023-02-13T22:59:40.204Z,26.27
2023-02-13T23:04:45.564Z,21.48
2023-02-13T23:09:51.108Z,19.27
2023-02-13T23:14:59.159Z,28.70
2023-02-13T23:20:04.707Z,20.13
2023-02-13T23:25:10.889Z,21.10
2023-02-13T23:30:18.153Z,17.17
2023-02-13T23:35:23.772Z,16.75
2023-02-13T23:40:29.274Z,16.88
2023-02-13T23:45:34.740Z,14.97
2023-02-13T23:50:41.341Z,25.40
2023-02-13T23:55:46.488Z,18.73
